Time;durP1;ratioP1;P1;durP2;ratioP2;P2;SDS_P1;SDS_P2;PMS_P1;PMS_P2;Temp;Humidity;BMP_temperature;BMP_pressure;BME280_temperature;BME280_humidity;BME280_pressure;Samples;Min_cycle;Max_cycle;Signal;HPM_P1;HPM_P2
2023/07/19 00:01:05;;;;;;;1.92;0.82;;;;;;;;;;5116809;28;20086;-75
2023/07/19 00:03:31;;;;;;;1.88;0.90;;;;;;;;;;5098444;28;20561;-75
2023/07/19 00:05:59;;;;;;;5.00;0.80;;;;;;;;;;5115272;28;20043;-75
2023/07/19 00:08:25;;;;;;;3.80;1.00;;;;;;;;;;5115280;28;20050;-75
2023/07/19 00:10:51;;;;;;;1.10;0.70;;;;;;;;;;5116079;28;20076;-75
2023/07/19 00:13:18;;;;;;;2.80;1.00;;;;;;;;;;5114708;28;20044;-76
2023/07/19 00:15:44;;;;;;;2.33;0.70;;;;;;;;;;5115251;28;20063;-75
2023/07/19 00:18:10;;;;;;;1.48;0.85;;;;;;;;;;5114699;28;20066;-75
2023/07/19 00:20:36;;;;;;;2.25;1.02;;;;;;;;;;5114710;28;20185;-75
2023/07/19 00:23:02;;;;;;;2.80;0.80;;;;;;;;;;5115751;28;20048;-75
2023/07/19 00:25:28;;;;;;;1.30;0.70;;;;;;;;;;5116587;28;20389;-75
2023/07/19 00:27:54;;;;;;;2.80;0.90;;;;;;;;;;5114435;28;20401;-75
2023/07/19 00:30:20;;;;;;;2.70;1.08;;;;;;;;;;5114955;28;20047;-75
2023/07/19 00:32:46;;;;;;;1.75;1.05;;;;;;;;;;5114419;28;20424;-75
2023/07/19 00:35:12;;;;;;;1.52;0.65;;;;;;;;;;5115011;28;20043;-75
2023/07/19 00:37:39;;;;;;;2.50;0.70;;;;;;;;;;5115492;28;20051;-75
2023/07/19 00:40:05;;;;;;;3.25;0.65;;;;;;;;;;5114806;28;20044;-75
2023/07/19 00:42:32;;;;;;;2.10;0.65;;;;;;;;;;5114262;28;20051;-76
2023/07/19 00:44:58;;;;;;;3.17;0.80;;;;;;;;;;5115332;28;20122;-75
2023/07/19 00:47:24;;;;;;;3.30;0.93;;;;;;;;;;5115214;28;20469;-75
2023/07/19 00:49:51;;;;;;;1.48;0.63;;;;;;;;;;5114525;28;20048;-75
2023/07/19 00:52:17;;;;;;;4.97;0.80;;;;;;;;;;5114976;28;20067;-75
2023/07/19 00:54:45;;;;;;;3.70;0.88;;;;;;;;;;5115157;28;20044;-75
2023/07/19 00:57:11;;;;;;;2.33;0.80;;;;;;;;;;5114112;28;20074;-75
2023/07/19 00:59:37;;;;;;;1.80;1.05;;;;;;;;;;5098081;28;20169;-75
2023/07/19 01:02:04;;;;;;;4.25;1.17;;;;;;;;;;5113906;28;20051;-75
2023/07/19 01:04:31;;;;;;;2.45;1.75;;;;;;;;;;5114940;28;20055;-75
2023/07/19 01:06:57;;;;;;;2.30;1.15;;;;;;;;;;5114129;28;20431;-75
2023/07/19 01:09:23;;;;;;;2.45;1.05;;;;;;;;;;5114959;28;20074;-75
2023/07/19 01:11:49;;;;;;;3.38;1.30;;;;;;;;;;5114833;28;20043;-75
2023/07/19 01:14:16;;;;;;;2.47;0.77;;;;;;;;;;5114094;28;20062;-75
2023/07/19 01:16:42;;;;;;;2.75;1.52;;;;;;;;;;5113742;28;20043;-75
2023/07/19 01:19:10;;;;;;;2.03;1.38;;;;;;;;;;5114934;28;20060;-75
2023/07/19 01:21:36;;;;;;;3.55;1.20;;;;;;;;;;5113724;28;20119;-75
2023/07/19 01:24:02;;;;;;;3.20;1.10;;;;;;;;;;5113589;28;20047;-75
2023/07/19 01:26:28;;;;;;;2.60;1.05;;;;;;;;;;5115046;28;20097;-75
2023/07/19 01:28:57;;;;;;;3.90;1.80;;;;;;;;;;5113532;28;20047;-75
2023/07/19 01:31:24;;;;;;;2.83;1.38;;;;;;;;;;5114314;28;20134;-75
2023/07/19 01:33:50;;;;;;;3.67;1.20;;;;;;;;;;5113742;28;20058;-75
2023/07/19 01:36:16;;;;;;;2.22;1.15;;;;;;;;;;5096676;28;20055;-75
2023/07/19 01:38:43;;;;;;;3.40;1.40;;;;;;;;;;5114070;28;20058;-75
2023/07/19 01:41:09;;;;;;;2.63;1.45;;;;;;;;;;5097262;28;20054;-75
2023/07/19 01:43:35;;;;;;;1.92;1.15;;;;;;;;;;5114596;28;20100;-75
2023/07/19 01:46:01;;;;;;;3.00;1.30;;;;;;;;;;5113152;28;20039;-75
2023/07/19 01:48:27;;;;;;;1.63;1.42;;;;;;;;;;5113451;28;20370;-75
2023/07/19 01:50:53;;;;;;;2.95;1.15;;;;;;;;;;5113285;28;20079;-75
2023/07/19 01:53:20;;;;;;;1.23;1.13;;;;;;;;;;5114197;28;20050;-75
2023/07/19 01:55:46;;;;;;;3.45;1.00;;;;;;;;;;5113137;28;20393;-75
2023/07/19 01:58:12;;;;;;;2.45;1.08;;;;;;;;;;5113169;28;20056;-75
2023/07/19 02:00:38;;;;;;;1.65;0.85;;;;;;;;;;5114650;28;20043;-74
2023/07/19 02:03:04;;;;;;;4.15;1.50;;;;;;;;;;5113015;28;20079;-75
2023/07/19 02:05:30;;;;;;;1.67;0.90;;;;;;;;;;5114610;28;20130;-75
2023/07/19 02:07:56;;;;;;;1.05;0.90;;;;;;;;;;5112733;28;20039;-75
2023/07/19 02:10:23;;;;;;;2.90;1.08;;;;;;;;;;5112995;28;20062;-75
2023/07/19 02:12:49;;;;;;;1.63;1.00;;;;;;;;;;5113260;28;20181;-75
2023/07/19 02:15:16;;;;;;;2.65;1.20;;;;;;;;;;5096799;28;20054;-75
2023/07/19 02:17:42;;;;;;;1.75;1.52;;;;;;;;;;5112659;28;20091;-75
2023/07/19 02:20:08;;;;;;;2.38;1.25;;;;;;;;;;5113358;28;20151;-75
2023/07/19 02:22:34;;;;;;;4.20;1.85;;;;;;;;;;5113533;28;20501;-75
2023/07/19 02:25:00;;;;;;;2.40;1.60;;;;;;;;;;5114602;28;20055;-74
2023/07/19 02:27:26;;;;;;;3.50;1.55;;;;;;;;;;5114286;28;20079;-75
2023/07/19 02:29:52;;;;;;;2.20;1.58;;;;;;;;;;5113806;28;20047;-75
2023/07/19 02:32:18;;;;;;;3.08;1.52;;;;;;;;;;5112763;28;20082;-75
2023/07/19 02:34:45;;;;;;;2.38;1.50;;;;;;;;;;5113022;28;20047;-75
2023/07/19 02:37:11;;;;;;;3.17;1.75;;;;;;;;;;5113638;28;20089;-75
2023/07/19 02:39:37;;;;;;;3.53;1.80;;;;;;;;;;5112738;28;20062;-75
2023/07/19 02:42:03;;;;;;;1.42;1.33;;;;;;;;;;5113591;28;20043;-75
2023/07/19 02:44:30;;;;;;;2.35;1.80;;;;;;;;;;5112703;28;20374;-75
2023/07/19 02:46:56;;;;;;;2.47;1.95;;;;;;;;;;5113261;28;20052;-75
2023/07/19 02:49:24;;;;;;;5.15;2.75;;;;;;;;;;5113416;28;20058;-75
2023/07/19 02:51:50;;;;;;;5.35;3.60;;;;;;;;;;5112597;28;20130;-74
2023/07/19 02:54:16;;;;;;;3.10;2.90;;;;;;;;;;5112382;28;20052;-74
2023/07/19 02:56:42;;;;;;;3.63;3.33;;;;;;;;;;5112385;28;20043;-74
2023/07/19 02:59:08;;;;;;;2.22;2.13;;;;;;;;;;5114270;28;20405;-75
2023/07/19 03:01:36;;;;;;;4.32;3.10;;;;;;;;;;5116415;28;20050;-74
2023/07/19 03:04:02;;;;;;;4.50;3.42;;;;;;;;;;5116637;28;20453;-74
2023/07/19 03:06:29;;;;;;;5.55;3.08;;;;;;;;;;5099856;28;20039;-74
2023/07/19 03:08:55;;;;;;;4.43;4.03;;;;;;;;;;5115689;28;20047;-74
2023/07/19 03:11:21;;;;;;;3.05;2.85;;;;;;;;;;5116999;28;20369;-74
2023/07/19 03:13:48;;;;;;;5.20;3.50;;;;;;;;;;5099281;28;20044;-74
2023/07/19 03:16:14;;;;;;;3.63;3.45;;;;;;;;;;5116090;28;20104;-74
2023/07/19 03:18:40;;;;;;;3.38;3.20;;;;;;;;;;5117158;28;20142;-75
2023/07/19 03:21:06;;;;;;;6.47;3.92;;;;;;;;;;5115829;28;20433;-74
2023/07/19 03:23:33;;;;;;;3.97;3.42;;;;;;;;;;5116040;28;20130;-74
2023/07/19 03:25:59;;;;;;;6.75;3.78;;;;;;;;;;5116243;28;20051;-74
2023/07/19 03:28:26;;;;;;;3.67;3.38;;;;;;;;;;5116854;28;20085;-74
2023/07/19 03:30:54;;;;;;;3.97;3.60;;;;;;;;;;5115645;28;20051;-74
2023/07/19 03:33:21;;;;;;;4.28;4.00;;;;;;;;;;5116653;28;20070;-74
2023/07/19 03:35:47;;;;;;;4.20;3.88;;;;;;;;;;5115787;28;20122;-74
2023/07/19 03:38:13;;;;;;;3.83;3.63;;;;;;;;;;5116605;28;20043;-74
2023/07/19 03:40:39;;;;;;;4.53;4.20;;;;;;;;;;5116505;28;20054;-74
2023/07/19 03:43:05;;;;;;;4.45;4.15;;;;;;;;;;5115199;28;20047;-75
2023/07/19 03:45:32;;;;;;;4.72;4.28;;;;;;;;;;5116217;28;20062;-74
2023/07/19 03:47:58;;;;;;;11.13;4.88;;;;;;;;;;5115532;28;20097;-75
2023/07/19 03:50:25;;;;;;;6.90;5.28;;;;;;;;;;5116260;28;20046;-75
2023/07/19 03:52:51;;;;;;;5.82;5.35;;;;;;;;;;5116166;28;20519;-75
2023/07/19 03:55:17;;;;;;;6.55;5.10;;;;;;;;;;5116071;28;20485;-75
2023/07/19 03:57:43;;;;;;;7.70;5.40;;;;;;;;;;5115561;28;20051;-75
2023/07/19 04:00:10;;;;;;;9.18;5.70;;;;;;;;;;5116294;28;20048;-75
2023/07/19 04:02:36;;;;;;;5.72;5.22;;;;;;;;;;5116237;28;20047;-76
2023/07/19 04:05:02;;;;;;;6.18;5.43;;;;;;;;;;5115962;28;20051;-76
2023/07/19 04:07:28;;;;;;;5.95;5.38;;;;;;;;;;5114902;28;20043;-76
2023/07/19 04:09:54;;;;;;;8.45;6.22;;;;;;;;;;5097633;28;20051;-75
2023/07/19 04:12:20;;;;;;;7.10;6.22;;;;;;;;;;5114976;28;20043;-75
2023/07/19 04:14:46;;;;;;;5.78;5.20;;;;;;;;;;5116000;28;20044;-75
2023/07/19 04:17:12;;;;;;;6.40;5.90;;;;;;;;;;5115652;28;20391;-76
2023/07/19 04:19:38;;;;;;;6.80;5.97;;;;;;;;;;5116368;28;20067;-75
2023/07/19 04:22:05;;;;;;;8.68;6.90;;;;;;;;;;5115742;28;20075;-75
2023/07/19 04:24:31;;;;;;;7.43;6.75;;;;;;;;;;5115154;28;20088;-75
2023/07/19 04:26:57;;;;;;;6.53;6.05;;;;;;;;;;5097940;28;20047;-75
2023/07/19 04:29:23;;;;;;;7.18;6.47;;;;;;;;;;5114678;28;20485;-75
2023/07/19 04:31:49;;;;;;;8.68;7.55;;;;;;;;;;5115043;28;20366;-74
2023/07/19 04:34:16;;;;;;;7.57;6.97;;;;;;;;;;5114474;28;20051;-75
2023/07/19 04:36:44;;;;;;;7.97;7.25;;;;;;;;;;5115639;28;20040;-75
2023/07/19 04:39:10;;;;;;;7.80;7.13;;;;;;;;;;5097565;28;20057;-76
2023/07/19 04:41:36;;;;;;;7.90;7.30;;;;;;;;;;5115515;28;20084;-75
2023/07/19 04:44:02;;;;;;;7.95;7.32;;;;;;;;;;5115448;28;20043;-76
2023/07/19 04:46:29;;;;;;;6.25;5.70;;;;;;;;;;5114426;28;20446;-74
2023/07/19 04:48:55;;;;;;;6.78;6.13;;;;;;;;;;5115450;28;20054;-75
2023/07/19 04:51:21;;;;;;;7.68;6.30;;;;;;;;;;5115419;28;20108;-75
2023/07/19 04:53:47;;;;;;;6.32;5.82;;;;;;;;;;5097274;28;20478;-75
2023/07/19 04:56:13;;;;;;;6.78;6.18;;;;;;;;;;5097338;28;20062;-75
2023/07/19 04:58:39;;;;;;;6.72;6.07;;;;;;;;;;5115238;28;20096;-76
2023/07/19 05:01:05;;;;;;;7.20;6.28;;;;;;;;;;5115159;28;20047;-76
2023/07/19 05:03:32;;;;;;;8.45;6.20;;;;;;;;;;5114119;28;20044;-75
2023/07/19 05:05:58;;;;;;;5.80;5.47;;;;;;;;;;5114635;28;20050;-76
2023/07/19 05:08:24;;;;;;;7.03;6.30;;;;;;;;;;5097578;28;20047;-76
2023/07/19 05:10:50;;;;;;;5.95;5.25;;;;;;;;;;5114581;28;20086;-76
2023/07/19 05:13:16;;;;;;;7.18;6.57;;;;;;;;;;5115258;28;20049;-77
2023/07/19 05:15:42;;;;;;;7.43;6.35;;;;;;;;;;5114729;28;20039;-76
2023/07/19 05:18:08;;;;;;;6.80;6.00;;;;;;;;;;5113848;28;20093;-76
2023/07/19 05:20:35;;;;;;;6.45;5.90;;;;;;;;;;5097044;28;20106;-76
2023/07/19 05:23:01;;;;;;;5.93;5.32;;;;;;;;;;5114924;28;20052;-76
2023/07/19 05:25:27;;;;;;;5.95;5.32;;;;;;;;;;5113458;28;20097;-76
2023/07/19 05:27:53;;;;;;;4.85;4.40;;;;;;;;;;5115186;28;20134;-76
2023/07/19 05:30:21;;;;;;;5.72;5.22;;;;;;;;;;5113903;28;20078;-76
2023/07/19 05:32:47;;;;;;;6.18;5.68;;;;;;;;;;5115176;28;20059;-75
2023/07/19 05:35:13;;;;;;;5.63;5.20;;;;;;;;;;5096497;28;20083;-76
2023/07/19 05:37:40;;;;;;;8.40;5.63;;;;;;;;;;5113176;28;20035;-75
2023/07/19 05:40:07;;;;;;;6.05;5.50;;;;;;;;;;5114324;28;20108;-76
2023/07/19 05:42:34;;;;;;;6.18;5.28;;;;;;;;;;5113434;28;20086;-76
2023/07/19 05:45:00;;;;;;;4.68;4.28;;;;;;;;;;5114191;28;20358;-76
2023/07/19 05:47:26;;;;;;;5.45;5.05;;;;;;;;;;5096424;28;20473;-76
2023/07/19 05:49:52;;;;;;;6.03;5.20;;;;;;;;;;5114386;28;20051;-76
2023/07/19 05:52:18;;;;;;;5.07;4.68;;;;;;;;;;5113028;28;20044;-76
2023/07/19 05:54:45;;;;;;;5.43;4.60;;;;;;;;;;5113463;28;20040;-76
2023/07/19 05:57:11;;;;;;;4.43;4.10;;;;;;;;;;5096225;28;20437;-76
2023/07/19 05:59:37;;;;;;;5.53;4.13;;;;;;;;;;5113864;28;20047;-76
2023/07/19 06:02:05;;;;;;;3.58;3.38;;;;;;;;;;5112990;28;20048;-77
2023/07/19 06:04:38;;;;;;;3.00;2.90;;;;;;;;;;5113790;28;20554;-76
2023/07/19 06:07:04;;;;;;;3.25;2.97;;;;;;;;;;5114455;28;20044;-77
2023/07/19 06:09:30;;;;;;;3.03;2.83;;;;;;;;;;5114037;28;20047;-76
2023/07/19 06:11:57;;;;;;;3.95;2.28;;;;;;;;;;5096807;28;20428;-76
2023/07/19 06:14:26;;;;;;;2.33;2.20;;;;;;;;;;5113891;28;20483;-76
2023/07/19 06:16:52;;;;;;;1.90;1.80;;;;;;;;;;5113991;28;20039;-77
2023/07/19 06:19:19;;;;;;;2.17;1.90;;;;;;;;;;5095227;28;20554;-76
2023/07/19 06:21:45;;;;;;;2.13;2.03;;;;;;;;;;5112713;28;20401;-76
2023/07/19 06:24:12;;;;;;;1.77;1.67;;;;;;;;;;5112864;28;20048;-76
2023/07/19 06:26:38;;;;;;;1.83;1.73;;;;;;;;;;5112788;28;20040;-76
2023/07/19 06:29:04;;;;;;;2.47;2.15;;;;;;;;;;5113768;28;20126;-76
2023/07/19 06:31:30;;;;;;;2.15;1.95;;;;;;;;;;5095752;28;20477;-75
2023/07/19 06:33:56;;;;;;;2.55;1.90;;;;;;;;;;5114442;28;20036;-75
2023/07/19 06:36:22;;;;;;;1.98;1.52;;;;;;;;;;5116990;28;20051;-76
2023/07/19 06:38:48;;;;;;;3.72;1.52;;;;;;;;;;5117114;28;20169;-75
2023/07/19 06:41:15;;;;;;;2.22;1.70;;;;;;;;;;5117665;28;20056;-75
2023/07/19 06:43:41;;;;;;;2.03;1.77;;;;;;;;;;5117809;28;20052;-75
2023/07/19 06:46:07;;;;;;;4.47;2.17;;;;;;;;;;5116587;28;20389;-76
2023/07/19 06:48:33;;;;;;;2.30;2.10;;;;;;;;;;5117193;28;20047;-75
2023/07/19 06:50:59;;;;;;;2.42;1.77;;;;;;;;;;5118223;28;20047;-75
2023/07/19 06:53:25;;;;;;;2.28;1.73;;;;;;;;;;5116573;28;20047;-76
2023/07/19 06:55:53;;;;;;;4.00;1.77;;;;;;;;;;5117373;28;20093;-75
2023/07/19 06:58:20;;;;;;;3.60;1.17;;;;;;;;;;5116479;28;20100;-75
2023/07/19 07:00:46;;;;;;;4.20;1.52;;;;;;;;;;5099318;28;20098;-75
2023/07/19 07:03:12;;;;;;;2.38;1.33;;;;;;;;;;5117383;28;20047;-76
2023/07/19 07:05:38;;;;;;;3.95;1.23;;;;;;;;;;5117494;28;20044;-75
2023/07/19 07:08:04;;;;;;;2.40;1.27;;;;;;;;;;5099215;28;20079;-75
2023/07/19 07:10:30;;;;;;;3.15;1.13;;;;;;;;;;5099010;28;20065;-75
2023/07/19 07:12:59;;;;;;;2.72;1.23;;;;;;;;;;5099329;28;20108;-75
2023/07/19 07:15:25;;;;;;;3.42;1.20;;;;;;;;;;5116300;28;20088;-76
2023/07/19 07:17:51;;;;;;;2.45;1.17;;;;;;;;;;5116983;28;20044;-76
2023/07/19 07:20:18;;;;;;;2.08;0.90;;;;;;;;;;5117094;28;20554;-76
2023/07/19 07:22:44;;;;;;;2.42;1.17;;;;;;;;;;5098469;28;20048;-75
2023/07/19 07:25:10;;;;;;;2.80;0.75;;;;;;;;;;5115861;28;20058;-75
2023/07/19 07:27:36;;;;;;;2.95;0.90;;;;;;;;;;5116555;28;20546;-75
2023/07/19 07:30:02;;;;;;;0.90;0.77;;;;;;;;;;5115913;28;20130;-75
2023/07/19 07:32:28;;;;;;;2.90;1.00;;;;;;;;;;5115869;28;20039;-75
2023/07/19 07:34:54;;;;;;;3.35;1.10;;;;;;;;;;5117675;28;20183;-76
2023/07/19 07:37:20;;;;;;;1.27;0.75;;;;;;;;;;5116751;28;20135;-76
2023/07/19 07:39:46;;;;;;;2.53;0.60;;;;;;;;;;5098741;28;20051;-75
2023/07/19 07:42:12;;;;;;;1.40;0.70;;;;;;;;;;5116577;28;20070;-76
2023/07/19 07:44:39;;;;;;;4.00;0.77;;;;;;;;;;5116067;28;20055;-75
2023/07/19 07:47:05;;;;;;;2.08;0.70;;;;;;;;;;5114924;28;20048;-75
2023/07/19 07:49:31;;;;;;;1.77;0.60;;;;;;;;;;5115252;28;20053;-75
2023/07/19 07:51:57;;;;;;;1.83;0.40;;;;;;;;;;5115567;28;20047;-75
2023/07/19 07:54:23;;;;;;;2.72;0.52;;;;;;;;;;5116391;28;20043;-75
2023/07/19 07:56:49;;;;;;;2.78;0.40;;;;;;;;;;5115264;28;20039;-75
2023/07/19 07:59:15;;;;;;;2.05;0.40;;;;;;;;;;5116972;28;20448;-75
2023/07/19 08:01:41;;;;;;;1.92;0.35;;;;;;;;;;5116230;28;20053;-75
2023/07/19 08:04:10;;;;;;;2.55;0.30;;;;;;;;;;5116917;28;20047;-75
2023/07/19 08:06:36;;;;;;;2.95;0.30;;;;;;;;;;5116041;28;20051;-75
2023/07/19 08:09:02;;;;;;;2.40;0.35;;;;;;;;;;5116132;28;20043;-75
2023/07/19 08:11:28;;;;;;;1.85;0.22;;;;;;;;;;5116720;28;20086;-75
2023/07/19 08:13:55;;;;;;;1.42;0.30;;;;;;;;;;5116082;28;20048;-75
2023/07/19 08:16:21;;;;;;;1.27;0.30;;;;;;;;;;5097829;28;20050;-75
2023/07/19 08:18:48;;;;;;;1.48;0.20;;;;;;;;;;5080583;28;20055;-75
2023/07/19 08:21:14;;;;;;;0.82;0.20;;;;;;;;;;5116549;28;20068;-75
2023/07/19 08:23:40;;;;;;;2.25;0.20;;;;;;;;;;5115948;28;20079;-75
2023/07/19 08:26:06;;;;;;;0.90;0.30;;;;;;;;;;5098086;28;20397;-75
2023/07/19 08:28:32;;;;;;;1.30;0.20;;;;;;;;;;5115360;28;20101;-76
2023/07/19 08:30:59;;;;;;;2.55;0.30;;;;;;;;;;5115181;28;20051;-75
2023/07/19 08:33:25;;;;;;;2.75;0.30;;;;;;;;;;5115954;28;20122;-76
2023/07/19 08:35:51;;;;;;;2.05;0.30;;;;;;;;;;5115327;28;20051;-76
2023/07/19 08:38:17;;;;;;;0.80;0.30;;;;;;;;;;5097722;28;20382;-76
2023/07/19 08:40:51;;;;;;;1.63;0.20;;;;;;;;;;5114534;28;20541;-76
2023/07/19 08:43:18;;;;;;;2.00;0.30;;;;;;;;;;5115419;28;20058;-75
2023/07/19 08:45:44;;;;;;;1.98;0.30;;;;;;;;;;5115507;28;20130;-75
2023/07/19 08:48:10;;;;;;;1.67;0.30;;;;;;;;;;5114987;28;20481;-75
2023/07/19 08:50:37;;;;;;;1.73;0.20;;;;;;;;;;5114417;28;20134;-76
2023/07/19 08:53:03;;;;;;;0.85;0.20;;;;;;;;;;5115397;28;20096;-76
2023/07/19 08:55:33;;;;;;;2.13;0.20;;;;;;;;;;5114120;28;20473;-75
2023/07/19 08:58:00;;;;;;;0.57;0.20;;;;;;;;;;5113846;28;20109;-76
2023/07/19 09:00:30;;;;;;;0.88;0.20;;;;;;;;;;5114060;28;20097;-76
2023/07/19 09:02:56;;;;;;;1.85;0.30;;;;;;;;;;5114749;28;20448;-75
2023/07/19 09:05:29;;;;;;;3.33;0.30;;;;;;;;;;5115926;28;20048;-76
2023/07/19 09:07:59;;;;;;;3.30;0.30;;;;;;;;;;5114588;28;20100;-75
2023/07/19 09:10:25;;;;;;;0.95;0.20;;;;;;;;;;5113570;28;20126;-75
2023/07/19 09:12:52;;;;;;;1.17;0.20;;;;;;;;;;5114953;28;20070;-75
2023/07/19 09:15:18;;;;;;;1.48;0.20;;;;;;;;;;5113957;28;20108;-76
2023/07/19 09:17:48;;;;;;;2.70;0.50;;;;;;;;;;5114907;28;20052;-75
2023/07/19 09:20:14;;;;;;;2.67;0.22;;;;;;;;;;5113930;28;20121;-75
2023/07/19 09:22:40;;;;;;;2.03;0.30;;;;;;;;;;5115586;28;20490;-76
2023/07/19 09:25:09;;;;;;;1.45;0.30;;;;;;;;;;5113764;28;20393;-76
2023/07/19 09:27:35;;;;;;;1.35;0.30;;;;;;;;;;5113572;28;20055;-76
2023/07/19 09:30:05;;;;;;;2.47;0.25;;;;;;;;;;5115417;28;20043;-76
2023/07/19 09:32:31;;;;;;;3.47;0.22;;;;;;;;;;5114526;28;20400;-75
2023/07/19 09:34:58;;;;;;;2.78;0.30;;;;;;;;;;5113461;28;20039;-76
2023/07/19 09:37:25;;;;;;;1.42;0.20;;;;;;;;;;5114226;28;20147;-76
2023/07/19 09:39:52;;;;;;;2.22;0.28;;;;;;;;;;5113459;28;20083;-76
2023/07/19 09:42:19;;;;;;;1.85;0.30;;;;;;;;;;5114152;28;20508;-76
2023/07/19 09:44:46;;;;;;;1.58;0.32;;;;;;;;;;5113237;28;20045;-75
2023/07/19 09:47:13;;;;;;;1.02;0.20;;;;;;;;;;5113115;28;20388;-76
2023/07/19 09:49:39;;;;;;;1.33;0.30;;;;;;;;;;5114400;28;20051;-75
2023/07/19 09:52:06;;;;;;;4.28;0.30;;;;;;;;;;5112737;28;20489;-75
2023/07/19 09:54:32;;;;;;;7.25;0.50;;;;;;;;;;5114233;28;20097;-76
2023/07/19 09:57:02;;;;;;;2.92;0.50;;;;;;;;;;5112377;28;20050;-76
2023/07/19 09:59:38;;;;;;;1.73;0.30;;;;;;;;;;5114595;28;20130;-75
2023/07/19 10:02:05;;;;;;;1.40;0.40;;;;;;;;;;5113108;28;20048;-75
2023/07/19 10:04:38;;;;;;;1.58;0.57;;;;;;;;;;5113117;28;20386;-75
2023/07/19 10:07:08;;;;;;;1.48;0.30;;;;;;;;;;5113842;28;20036;-76
2023/07/19 10:09:38;;;;;;;2.75;0.30;;;;;;;;;;5113775;28;20050;-76
2023/07/19 10:12:17;;;;;;;1.73;0.40;;;;;;;;;;5113284;28;20062;-75
2023/07/19 10:14:52;;;;;;;1.73;0.38;;;;;;;;;;5113954;28;20083;-75
2023/07/19 10:17:19;;;;;;;1.45;0.28;;;;;;;;;;5113046;28;20450;-75
2023/07/19 10:20:03;;;;;;;1.25;0.30;;;;;;;;;;5114476;28;20107;-75
2023/07/19 10:22:48;;;;;;;1.38;0.20;;;;;;;;;;5113809;28;20047;-75
2023/07/19 10:25:15;;;;;;;1.13;0.20;;;;;;;;;;5112699;28;20405;-75
2023/07/19 10:27:41;;;;;;;2.20;0.57;;;;;;;;;;5112713;28;20043;-75
2023/07/19 10:30:08;;;;;;;1.15;0.20;;;;;;;;;;5113825;28;20092;-75
2023/07/19 10:32:34;;;;;;;2.05;0.20;;;;;;;;;;5096068;28;20039;-75
2023/07/19 10:35:02;;;;;;;0.88;0.22;;;;;;;;;;5113811;28;20047;-75
2023/07/19 10:37:28;;;;;;;1.48;0.20;;;;;;;;;;5114255;28;20047;-76
2023/07/19 10:39:54;;;;;;;0.93;0.20;;;;;;;;;;5113728;28;20043;-77
2023/07/19 10:42:20;;;;;;;1.00;0.20;;;;;;;;;;5096554;28;20051;-75
2023/07/19 10:44:47;;;;;;;3.08;0.20;;;;;;;;;;5096698;28;20048;-76
2023/07/19 10:47:14;;;;;;;1.98;0.30;;;;;;;;;;5112552;28;20048;-75
2023/07/19 10:49:41;;;;;;;0.93;0.30;;;;;;;;;;5095746;28;20155;-75
2023/07/19 10:52:07;;;;;;;1.42;0.30;;;;;;;;;;5112580;28;20055;-76
2023/07/19 10:54:34;;;;;;;1.85;0.30;;;;;;;;;;5112677;28;20082;-75
2023/07/19 10:57:01;;;;;;;1.38;0.20;;;;;;;;;;5113564;28;20046;-76
2023/07/19 10:59:27;;;;;;;0.95;0.20;;;;;;;;;;5112532;28;20043;-75
2023/07/19 11:01:55;;;;;;;1.05;0.20;;;;;;;;;;5112680;28;20066;-75
2023/07/19 11:04:22;;;;;;;0.95;0.20;;;;;;;;;;5113505;28;20044;-75
2023/07/19 11:06:55;;;;;;;0.85;0.20;;;;;;;;;;5095788;28;20098;-75
2023/07/19 11:09:24;;;;;;;1.95;0.20;;;;;;;;;;5095867;28;20035;-75
2023/07/19 11:11:50;;;;;;;0.70;0.20;;;;;;;;;;5095800;28;20237;-75
2023/07/19 11:14:29;;;;;;;0.38;0.10;;;;;;;;;;5113483;28;20100;-75
2023/07/19 11:16:56;;;;;;;1.17;0.20;;;;;;;;;;5112448;28;20047;-75
2023/07/19 11:19:35;;;;;;;1.58;0.20;;;;;;;;;;5113984;28;20055;-75
2023/07/19 11:22:02;;;;;;;1.10;0.20;;;;;;;;;;5116075;28;20079;-75
2023/07/19 11:24:42;;;;;;;1.15;0.30;;;;;;;;;;5116101;28;20489;-75
2023/07/19 11:27:08;;;;;;;0.98;0.30;;;;;;;;;;5116948;28;20039;-75
2023/07/19 11:29:35;;;;;;;1.80;0.10;;;;;;;;;;5116088;28;20062;-75
2023/07/19 11:32:16;;;;;;;0.70;0.20;;;;;;;;;;5098930;28;20051;-75
2023/07/19 11:34:51;;;;;;;0.60;0.13;;;;;;;;;;5115931;28;20047;-75
2023/07/19 11:37:30;;;;;;;0.65;0.35;;;;;;;;;;5115794;28;20477;-76
2023/07/19 11:40:02;;;;;;;1.95;0.17;;;;;;;;;;5116778;28;20090;-75
2023/07/19 11:42:48;;;;;;;1.58;0.20;;;;;;;;;;5116755;28;20485;-75
2023/07/19 11:45:14;;;;;;;2.03;0.20;;;;;;;;;;5115724;28;20043;-75
2023/07/19 11:47:41;;;;;;;2.30;0.40;;;;;;;;;;5116624;28;20532;-75
2023/07/19 11:50:08;;;;;;;2.72;0.20;;;;;;;;;;5115634;28;20079;-75
2023/07/19 11:52:44;;;;;;;1.88;0.20;;;;;;;;;;5115340;28;20400;-75
2023/07/19 11:55:13;;;;;;;1.38;0.20;;;;;;;;;;5116551;28;20100;-75
2023/07/19 11:57:40;;;;;;;0.90;0.22;;;;;;;;;;5116448;28;20044;-75
2023/07/19 12:00:10;;;;;;;1.25;0.30;;;;;;;;;;5115430;28;20047;-75
2023/07/19 12:02:36;;;;;;;0.88;0.20;;;;;;;;;;5116387;28;20397;-75
2023/07/19 12:05:04;;;;;;;0.60;0.30;;;;;;;;;;5116320;28;20140;-74
2023/07/19 12:07:31;;;;;;;0.90;0.10;;;;;;;;;;5116600;28;20397;-75
2023/07/19 12:09:57;;;;;;;97.50;4.88;;;;;;;;;;5116801;28;20468;-75
2023/07/19 12:12:23;;;;;;;1.23;0.10;;;;;;;;;;5115221;28;20393;-74
2023/07/19 12:14:49;;;;;;;0.28;0.10;;;;;;;;;;5116380;28;20477;-75
2023/07/19 12:17:16;;;;;;;1.65;0.10;;;;;;;;;;5115891;28;20043;-74
2023/07/19 12:19:42;;;;;;;0.70;0.20;;;;;;;;;;5097641;28;20135;-75
2023/07/19 12:22:08;;;;;;;0.68;0.20;;;;;;;;;;5115806;28;20094;-75
2023/07/19 12:24:34;;;;;;;1.10;0.20;;;;;;;;;;5114922;28;20477;-75
2023/07/19 12:27:00;;;;;;;0.85;0.30;;;;;;;;;;5114612;28;20043;-75
2023/07/19 12:29:26;;;;;;;1.08;0.20;;;;;;;;;;5114659;28;20054;-76
2023/07/19 12:31:53;;;;;;;0.80;0.20;;;;;;;;;;5114073;28;20097;-75
2023/07/19 12:34:20;;;;;;;0.82;0.20;;;;;;;;;;5115748;28;20070;-76
2023/07/19 12:36:50;;;;;;;0.60;0.20;;;;;;;;;;5097905;28;20050;-76
2023/07/19 12:39:18;;;;;;;1.63;0.20;;;;;;;;;;5098300;28;20425;-76
2023/07/19 12:41:44;;;;;;;0.25;0.10;;;;;;;;;;5114594;28;20090;-76
2023/07/19 12:44:11;;;;;;;0.90;0.20;;;;;;;;;;5115546;28;20055;-76
2023/07/19 12:46:38;;;;;;;1.02;0.20;;;;;;;;;;5115341;28;20047;-76
2023/07/19 12:49:04;;;;;;;1.00;0.28;;;;;;;;;;5115352;28;20576;-76
2023/07/19 12:51:30;;;;;;;1.63;0.20;;;;;;;;;;5115849;28;20426;-76
2023/07/19 12:53:57;;;;;;;0.38;0.15;;;;;;;;;;5115308;28;20504;-76
2023/07/19 12:56:23;;;;;;;1.17;0.20;;;;;;;;;;5115243;28;20508;-76
2023/07/19 12:58:49;;;;;;;1.20;0.30;;;;;;;;;;5115818;28;20043;-76
2023/07/19 13:01:15;;;;;;;0.88;0.20;;;;;;;;;;5115173;28;20403;-76
2023/07/19 13:03:41;;;;;;;1.00;0.25;;;;;;;;;;5114998;28;20051;-76
2023/07/19 13:06:07;;;;;;;1.67;0.20;;;;;;;;;;5115112;28;20055;-76
2023/07/19 13:08:33;;;;;;;2.38;0.20;;;;;;;;;;5097515;28;20046;-76
2023/07/19 13:10:59;;;;;;;0.95;0.20;;;;;;;;;;5114968;28;20044;-76
2023/07/19 13:13:26;;;;;;;0.63;0.20;;;;;;;;;;5097139;28;20047;-76
2023/07/19 13:15:52;;;;;;;0.40;0.10;;;;;;;;;;5114854;28;20083;-76
2023/07/19 13:18:18;;;;;;;0.73;0.10;;;;;;;;;;5114616;28;20143;-76
2023/07/19 13:20:44;;;;;;;1.25;0.20;;;;;;;;;;5114054;28;20133;-76
2023/07/19 13:23:10;;;;;;;0.40;0.15;;;;;;;;;;5096752;28;20065;-76
2023/07/19 13:25:38;;;;;;;1.00;0.20;;;;;;;;;;5114645;28;20135;-76
2023/07/19 13:28:04;;;;;;;1.35;0.20;;;;;;;;;;5115386;28;20416;-76
2023/07/19 13:30:30;;;;;;;0.88;0.30;;;;;;;;;;5114644;28;20109;-76
2023/07/19 13:32:56;;;;;;;0.75;0.20;;;;;;;;;;5114597;28;20167;-76
2023/07/19 13:35:22;;;;;;;0.40;0.20;;;;;;;;;;5114532;28;20047;-76
2023/07/19 13:37:49;;;;;;;0.50;0.10;;;;;;;;;;5114405;28;20485;-76
2023/07/19 13:40:15;;;;;;;0.68;0.20;;;;;;;;;;5096449;28;20143;-76
2023/07/19 13:42:41;;;;;;;1.75;0.40;;;;;;;;;;5113683;28;20499;-76
2023/07/19 13:45:07;;;;;;;1.17;0.40;;;;;;;;;;5113140;28;20043;-76
2023/07/19 13:47:34;;;;;;;1.50;0.30;;;;;;;;;;5113107;28;20126;-76
2023/07/19 13:50:00;;;;;;;1.00;0.30;;;;;;;;;;5113209;28;20050;-76
2023/07/19 13:52:26;;;;;;;0.90;0.32;;;;;;;;;;5114767;28;20043;-76
2023/07/19 13:54:52;;;;;;;0.90;0.22;;;;;;;;;;5113551;28;20035;-76
2023/07/19 13:57:18;;;;;;;1.02;0.20;;;;;;;;;;5112871;28;20164;-76
2023/07/19 13:59:44;;;;;;;0.70;0.20;;;;;;;;;;5112995;28;20130;-76
2023/07/19 14:02:11;;;;;;;2.85;0.40;;;;;;;;;;5113798;28;20535;-75
2023/07/19 14:04:37;;;;;;;0.80;0.30;;;;;;;;;;5114167;28;20050;-75
2023/07/19 14:07:03;;;;;;;2.63;0.40;;;;;;;;;;5113993;28;20126;-75
2023/07/19 14:09:29;;;;;;;2.30;0.60;;;;;;;;;;5113982;28;20043;-75
2023/07/19 14:11:55;;;;;;;2.08;0.50;;;;;;;;;;5114789;28;20074;-75
2023/07/19 14:14:21;;;;;;;1.63;0.60;;;;;;;;;;5113243;28;20054;-75
2023/07/19 14:16:51;;;;;;;1.65;0.40;;;;;;;;;;5113801;28;20052;-75
2023/07/19 14:19:17;;;;;;;1.88;0.60;;;;;;;;;;5112867;28;20051;-75
2023/07/19 14:21:43;;;;;;;2.40;0.80;;;;;;;;;;5113904;28;20055;-76
2023/07/19 14:24:09;;;;;;;1.08;0.50;;;;;;;;;;5113889;28;20134;-75
2023/07/19 14:26:36;;;;;;;2.55;0.55;;;;;;;;;;5096693;28;20040;-75
2023/07/19 14:29:03;;;;;;;3.03;0.40;;;;;;;;;;5112915;28;20591;-75
2023/07/19 14:31:29;;;;;;;2.72;0.77;;;;;;;;;;5113606;28;20051;-75
2023/07/19 14:33:55;;;;;;;1.38;0.30;;;;;;;;;;5113595;28;20100;-75
2023/07/19 14:36:21;;;;;;;1.13;0.45;;;;;;;;;;5114047;28;20052;-75
2023/07/19 14:38:47;;;;;;;1.92;0.30;;;;;;;;;;5112659;28;20043;-76
2023/07/19 14:41:14;;;;;;;2.25;0.47;;;;;;;;;;5113062;28;20047;-75